This is the latest recevied weather packets stored in our database for station/object SV2ASS-2. If no packets are shown the sender has not sent any weather packets the latest 10 day(s).
| Time | Temp. | Humidity | Pressure | Rain* | Wind** | Luminosity | Snow |
|---|---|---|---|---|---|---|---|
| 1778036263 | 10.56° C | 62% | 1018.8 hPa | - | - | - | - |
| 1778035363 | 11.11° C | 62% | 1018.7 hPa | - | - | - | - |
| 1778034463 | 11.11° C | 62% | 1018.7 hPa | - | - | - | - |
| 1778033563 | 11.11° C | 62% | 1018.9 hPa | - | - | - | - |
| 1778032663 | 11.11° C | 60% | 1018.9 hPa | - | - | - | - |
| 1778031762 | 11.11° C | 59% | 1019 hPa | - | - | - | - |
| 1778030862 | 11.11° C | 59% | 1019 hPa | - | - | - | - |
| 1778029962 | 12.22° C | 55% | 1018.9 hPa | - | - | - | - |
| 1778029062 | 13.33° C | 54% | 1018.9 hPa | - | - | - | - |
| 1778028162 | 12.78° C | 56% | 1018.9 hPa | - | - | - | - |
| 1778027262 | 13.33° C | 54% | 1018.9 hPa | - | - | - | - |
| 1778026362 | 11.67° C | 59% | 1019.1 hPa | - | - | - | - |
| 1778025462 | 11.67° C | 60% | 1019 hPa | - | - | - | - |
| 1778024562 | 11.67° C | 59% | 1019 hPa | - | - | - | - |
| 1778023662 | 11.67° C | 58% | 1019 hPa | - | - | - | - |
| 1778022762 | 12.22° C | 58% | 1019.1 hPa | - | - | - | - |
| 1778021862 | 12.22° C | 58% | 1019.3 hPa | - | - | - | - |
| 1778020961 | 12.78° C | 57% | 1019.3 hPa | - | - | - | - |
| 1778020061 | 12.78° C | 56% | 1019.3 hPa | - | - | - | - |
| 1778019161 | 13.33° C | 54% | 1019.3 hPa | - | - | - | - |
| 1778018261 | 13.33° C | 54% | 1019.3 hPa | - | - | - | - |
| 1778017361 | 13.33° C | 55% | 1019.3 hPa | - | - | - | - |
| 1778016461 | 12.78° C | 57% | 1019.4 hPa | - | - | - | - |
| 1778015561 | 13.33° C | 55% | 1019.2 hPa | - | - | - | - |
| 1778014668 | 13.89° C | 56% | 1019.3 hPa | - | - | - | - |
* Rain since midnight (hover to see other rain measurements)
** Current wind speed in m/s (hover to see current wind gust speed)